sensor_id;sensor_type;location;lat;lon;timestamp;temperature;humidity
21807;DHT22;11065;50.786;7.840;2023-02-13T00:00:46;11.40;55.70
21807;DHT22;11065;50.786;7.840;2023-02-13T00:03:14;11.40;55.80
21807;DHT22;11065;50.786;7.840;2023-02-13T00:05:43;11.40;55.80
21807;DHT22;11065;50.786;7.840;2023-02-13T00:08:11;11.40;55.80
21807;DHT22;11065;50.786;7.840;2023-02-13T00:10:39;11.40;55.90
21807;DHT22;11065;50.786;7.840;2023-02-13T00:13:07;11.40;55.80
21807;DHT22;11065;50.786;7.840;2023-02-13T00:15:35;11.40;55.80
21807;DHT22;11065;50.786;7.840;2023-02-13T00:18:04;11.40;55.90
21807;DHT22;11065;50.786;7.840;2023-02-13T00:20:32;11.40;55.90
21807;DHT22;11065;50.786;7.840;2023-02-13T00:23:01;11.40;55.90
21807;DHT22;11065;50.786;7.840;2023-02-13T00:25:30;11.40;56.00
21807;DHT22;11065;50.786;7.840;2023-02-13T00:27:58;11.40;56.00
21807;DHT22;11065;50.786;7.840;2023-02-13T00:30:26;11.40;56.00
21807;DHT22;11065;50.786;7.840;2023-02-13T00:32:54;11.40;56.00
21807;DHT22;11065;50.786;7.840;2023-02-13T00:35:23;11.40;56.00
21807;DHT22;11065;50.786;7.840;2023-02-13T00:37:51;11.40;56.00
21807;DHT22;11065;50.786;7.840;2023-02-13T00:40:24;11.40;55.90
21807;DHT22;11065;50.786;7.840;2023-02-13T00:42:52;11.40;55.90
21807;DHT22;11065;50.786;7.840;2023-02-13T00:45:21;11.40;55.90
21807;DHT22;11065;50.786;7.840;2023-02-13T00:47:49;11.40;55.90
21807;DHT22;11065;50.786;7.840;2023-02-13T00:50:19;11.30;55.90
21807;DHT22;11065;50.786;7.840;2023-02-13T00:52:47;11.30;56.00
21807;DHT22;11065;50.786;7.840;2023-02-13T00:55:15;11.30;56.00
21807;DHT22;11065;50.786;7.840;2023-02-13T00:57:45;11.30;56.00
21807;DHT22;11065;50.786;7.840;2023-02-13T01:00:14;11.30;56.10
21807;DHT22;11065;50.786;7.840;2023-02-13T01:02:42;11.30;56.10
21807;DHT22;11065;50.786;7.840;2023-02-13T01:05:10;11.30;56.10
21807;DHT22;11065;50.786;7.840;2023-02-13T01:07:38;11.30;56.10
21807;DHT22;11065;50.786;7.840;2023-02-13T01:10:07;11.30;56.10
21807;DHT22;11065;50.786;7.840;2023-02-13T01:12:35;11.30;56.10
21807;DHT22;11065;50.786;7.840;2023-02-13T01:15:07;11.30;56.20
21807;DHT22;11065;50.786;7.840;2023-02-13T01:17:35;11.30;56.20
21807;DHT22;11065;50.786;7.840;2023-02-13T01:20:06;11.30;56.20
21807;DHT22;11065;50.786;7.840;2023-02-13T01:22:34;11.30;56.20
21807;DHT22;11065;50.786;7.840;2023-02-13T01:25:02;11.30;56.50
21807;DHT22;11065;50.786;7.840;2023-02-13T01:27:30;11.30;56.10
21807;DHT22;11065;50.786;7.840;2023-02-13T01:29:58;11.30;56.20
21807;DHT22;11065;50.786;7.840;2023-02-13T01:32:28;11.30;56.20
21807;DHT22;11065;50.786;7.840;2023-02-13T01:34:56;11.30;56.20
21807;DHT22;11065;50.786;7.840;2023-02-13T01:37:24;11.30;56.20
21807;DHT22;11065;50.786;7.840;2023-02-13T01:39:52;11.30;56.20
21807;DHT22;11065;50.786;7.840;2023-02-13T01:42:23;11.30;56.20
21807;DHT22;11065;50.786;7.840;2023-02-13T01:44:54;11.30;56.30
21807;DHT22;11065;50.786;7.840;2023-02-13T01:47:25;11.30;56.20
21807;DHT22;11065;50.786;7.840;2023-02-13T01:50:02;11.30;56.20
21807;DHT22;11065;50.786;7.840;2023-02-13T01:52:31;11.30;56.20
21807;DHT22;11065;50.786;7.840;2023-02-13T01:55:00;11.40;56.20
21807;DHT22;11065;50.786;7.840;2023-02-13T01:57:30;11.30;56.20
21807;DHT22;11065;50.786;7.840;2023-02-13T02:00:02;11.40;56.30
21807;DHT22;11065;50.786;7.840;2023-02-13T02:02:48;11.40;56.30
21807;DHT22;11065;50.786;7.840;2023-02-13T02:05:26;11.40;56.30
21807;DHT22;11065;50.786;7.840;2023-02-13T02:07:56;11.30;56.20
21807;DHT22;11065;50.786;7.840;2023-02-13T02:10:25;11.40;56.20
21807;DHT22;11065;50.786;7.840;2023-02-13T02:12:57;11.40;56.10
21807;DHT22;11065;50.786;7.840;2023-02-13T02:15:29;11.30;56.20
21807;DHT22;11065;50.786;7.840;2023-02-13T02:17:57;11.30;56.10
21807;DHT22;11065;50.786;7.840;2023-02-13T02:23:57;11.40;56.20
21807;DHT22;11065;50.786;7.840;2023-02-13T02:27:07;11.30;56.10
21807;DHT22;11065;50.786;7.840;2023-02-13T02:30:10;11.30;56.10
21807;DHT22;11065;50.786;7.840;2023-02-13T02:32:54;11.30;56.10
21807;DHT22;11065;50.786;7.840;2023-02-13T02:35:35;11.30;56.00
21807;DHT22;11065;50.786;7.840;2023-02-13T02:38:20;11.30;56.10
21807;DHT22;11065;50.786;7.840;2023-02-13T02:41:01;11.30;56.20
21807;DHT22;11065;50.786;7.840;2023-02-13T02:43:45;11.30;56.20
21807;DHT22;11065;50.786;7.840;2023-02-13T02:46:20;11.30;56.20
21807;DHT22;11065;50.786;7.840;2023-02-13T02:48:55;11.30;56.20
21807;DHT22;11065;50.786;7.840;2023-02-13T02:51:56;11.30;56.20
21807;DHT22;11065;50.786;7.840;2023-02-13T02:54:33;11.30;56.20
21807;DHT22;11065;50.786;7.840;2023-02-13T02:57:23;11.30;56.20
21807;DHT22;11065;50.786;7.840;2023-02-13T02:59:57;11.30;56.10
21807;DHT22;11065;50.786;7.840;2023-02-13T03:02:43;11.30;56.10
21807;DHT22;11065;50.786;7.840;2023-02-13T03:05:31;11.30;56.10
21807;DHT22;11065;50.786;7.840;2023-02-13T03:08:18;11.30;56.20
21807;DHT22;11065;50.786;7.840;2023-02-13T03:11:07;11.20;56.10
21807;DHT22;11065;50.786;7.840;2023-02-13T03:13:53;11.30;56.10
21807;DHT22;11065;50.786;7.840;2023-02-13T03:16:23;11.20;56.00
21807;DHT22;11065;50.786;7.840;2023-02-13T03:19:12;11.20;56.00
21807;DHT22;11065;50.786;7.840;2023-02-13T03:22:07;11.20;56.00
21807;DHT22;11065;50.786;7.840;2023-02-13T03:24:55;11.20;56.10
21807;DHT22;11065;50.786;7.840;2023-02-13T03:27:34;11.20;56.10
21807;DHT22;11065;50.786;7.840;2023-02-13T03:30:28;11.20;56.10
21807;DHT22;11065;50.786;7.840;2023-02-13T03:33:06;11.20;56.00
21807;DHT22;11065;50.786;7.840;2023-02-13T03:35:39;11.20;56.00
21807;DHT22;11065;50.786;7.840;2023-02-13T03:38:33;11.20;56.00
21807;DHT22;11065;50.786;7.840;2023-02-13T03:41:11;11.20;56.00
21807;DHT22;11065;50.786;7.840;2023-02-13T03:43:55;11.20;56.00
21807;DHT22;11065;50.786;7.840;2023-02-13T03:46:26;11.30;56.00
21807;DHT22;11065;50.786;7.840;2023-02-13T03:48:57;11.20;55.90
21807;DHT22;11065;50.786;7.840;2023-02-13T03:51:49;11.20;55.90
21807;DHT22;11065;50.786;7.840;2023-02-13T03:54:24;11.20;55.90
21807;DHT22;11065;50.786;7.840;2023-02-13T03:57:15;11.10;55.80
21807;DHT22;11065;50.786;7.840;2023-02-13T04:00:06;11.10;55.80
21807;DHT22;11065;50.786;7.840;2023-02-13T04:02:41;11.10;55.90
21807;DHT22;11065;50.786;7.840;2023-02-13T04:05:14;11.10;55.90
21807;DHT22;11065;50.786;7.840;2023-02-13T04:07:43;11.00;55.80
21807;DHT22;11065;50.786;7.840;2023-02-13T04:10:15;11.00;55.80
21807;DHT22;11065;50.786;7.840;2023-02-13T04:12:52;11.00;55.90
21807;DHT22;11065;50.786;7.840;2023-02-13T04:15:26;11.00;55.90
21807;DHT22;11065;50.786;7.840;2023-02-13T04:17:58;10.90;55.90
21807;DHT22;11065;50.786;7.840;2023-02-13T04:20:30;10.90;55.90
21807;DHT22;11065;50.786;7.840;2023-02-13T04:23:04;10.90;55.90
21807;DHT22;11065;50.786;7.840;2023-02-13T04:25:36;10.90;56.00
21807;DHT22;11065;50.786;7.840;2023-02-13T04:28:05;10.80;55.90
21807;DHT22;11065;50.786;7.840;2023-02-13T04:30:34;10.80;56.00
21807;DHT22;11065;50.786;7.840;2023-02-13T04:33:02;10.80;55.90
21807;DHT22;11065;50.786;7.840;2023-02-13T04:35:30;10.80;55.90
21807;DHT22;11065;50.786;7.840;2023-02-13T04:37:57;10.70;56.00
21807;DHT22;11065;50.786;7.840;2023-02-13T04:40:26;10.70;56.00
21807;DHT22;11065;50.786;7.840;2023-02-13T04:42:55;10.70;56.00
21807;DHT22;11065;50.786;7.840;2023-02-13T04:45:23;10.70;56.00
21807;DHT22;11065;50.786;7.840;2023-02-13T04:47:52;10.70;55.90
21807;DHT22;11065;50.786;7.840;2023-02-13T04:50:21;10.70;55.90
21807;DHT22;11065;50.786;7.840;2023-02-13T04:52:52;10.70;56.00
21807;DHT22;11065;50.786;7.840;2023-02-13T04:55:20;10.70;56.00
21807;DHT22;11065;50.786;7.840;2023-02-13T04:57:51;10.70;56.00
21807;DHT22;11065;50.786;7.840;2023-02-13T05:00:22;10.70;56.00
21807;DHT22;11065;50.786;7.840;2023-02-13T05:02:50;10.70;56.00
21807;DHT22;11065;50.786;7.840;2023-02-13T05:05:19;10.70;56.00
21807;DHT22;11065;50.786;7.840;2023-02-13T05:07:47;10.60;55.90
21807;DHT22;11065;50.786;7.840;2023-02-13T05:10:15;10.60;55.90
21807;DHT22;11065;50.786;7.840;2023-02-13T05:12:43;10.60;55.90
21807;DHT22;11065;50.786;7.840;2023-02-13T05:15:11;10.70;55.90
21807;DHT22;11065;50.786;7.840;2023-02-13T05:17:42;10.60;55.80
21807;DHT22;11065;50.786;7.840;2023-02-13T05:20:11;10.60;55.80
21807;DHT22;11065;50.786;7.840;2023-02-13T05:22:43;10.60;55.70
21807;DHT22;11065;50.786;7.840;2023-02-13T05:25:28;10.50;55.60
21807;DHT22;11065;50.786;7.840;2023-02-13T05:27:56;10.50;55.60
21807;DHT22;11065;50.786;7.840;2023-02-13T05:30:24;10.40;55.50
21807;DHT22;11065;50.786;7.840;2023-02-13T05:32:54;10.40;55.40
21807;DHT22;11065;50.786;7.840;2023-02-13T05:35:22;10.30;55.30
21807;DHT22;11065;50.786;7.840;2023-02-13T05:37:50;10.30;55.30
21807;DHT22;11065;50.786;7.840;2023-02-13T05:40:18;10.20;55.20
21807;DHT22;11065;50.786;7.840;2023-02-13T05:42:48;10.10;55.20
21807;DHT22;11065;50.786;7.840;2023-02-13T05:45:20;10.10;55.10
21807;DHT22;11065;50.786;7.840;2023-02-13T05:47:48;9.90;55.10
21807;DHT22;11065;50.786;7.840;2023-02-13T05:50:18;9.90;55.00
21807;DHT22;11065;50.786;7.840;2023-02-13T05:52:46;9.80;55.00
21807;DHT22;11065;50.786;7.840;2023-02-13T05:55:14;9.70;54.90
21807;DHT22;11065;50.786;7.840;2023-02-13T05:57:42;9.60;54.90
21807;DHT22;11065;50.786;7.840;2023-02-13T06:00:11;9.60;54.90
21807;DHT22;11065;50.786;7.840;2023-02-13T06:02:40;9.50;54.90
21807;DHT22;11065;50.786;7.840;2023-02-13T06:05:08;9.40;54.80
21807;DHT22;11065;50.786;7.840;2023-02-13T06:07:38;9.30;54.80
21807;DHT22;11065;50.786;7.840;2023-02-13T06:10:06;9.20;54.80
21807;DHT22;11065;50.786;7.840;2023-02-13T06:12:34;9.10;54.70
21807;DHT22;11065;50.786;7.840;2023-02-13T06:15:04;9.00;54.70
21807;DHT22;11065;50.786;7.840;2023-02-13T06:17:32;8.90;54.70
21807;DHT22;11065;50.786;7.840;2023-02-13T06:20:00;8.80;54.80
21807;DHT22;11065;50.786;7.840;2023-02-13T06:22:29;8.80;54.80
21807;DHT22;11065;50.786;7.840;2023-02-13T06:24:58;8.70;54.90
21807;DHT22;11065;50.786;7.840;2023-02-13T06:27:26;8.60;54.90
21807;DHT22;11065;50.786;7.840;2023-02-13T06:29:54;8.50;54.90
21807;DHT22;11065;50.786;7.840;2023-02-13T06:32:22;8.50;55.00
21807;DHT22;11065;50.786;7.840;2023-02-13T06:34:51;8.40;55.00
21807;DHT22;11065;50.786;7.840;2023-02-13T06:37:19;8.30;55.00
21807;DHT22;11065;50.786;7.840;2023-02-13T06:39:47;8.30;55.00
21807;DHT22;11065;50.786;7.840;2023-02-13T06:42:16;8.20;54.90
21807;DHT22;11065;50.786;7.840;2023-02-13T06:44:44;8.10;55.00
21807;DHT22;11065;50.786;7.840;2023-02-13T06:47:12;8.10;55.00
21807;DHT22;11065;50.786;7.840;2023-02-13T06:49:40;8.00;55.00
21807;DHT22;11065;50.786;7.840;2023-02-13T06:52:09;7.90;55.00
21807;DHT22;11065;50.786;7.840;2023-02-13T06:54:37;7.90;55.00
21807;DHT22;11065;50.786;7.840;2023-02-13T06:57:15;7.90;55.10
21807;DHT22;11065;50.786;7.840;2023-02-13T06:59:44;7.80;55.10
21807;DHT22;11065;50.786;7.840;2023-02-13T07:02:12;7.70;55.10
21807;DHT22;11065;50.786;7.840;2023-02-13T07:04:40;7.70;55.20
21807;DHT22;11065;50.786;7.840;2023-02-13T07:07:08;7.60;55.10
21807;DHT22;11065;50.786;7.840;2023-02-13T07:09:40;7.60;55.10
21807;DHT22;11065;50.786;7.840;2023-02-13T07:12:08;7.50;55.20
21807;DHT22;11065;50.786;7.840;2023-02-13T07:14:37;7.50;55.20
21807;DHT22;11065;50.786;7.840;2023-02-13T07:17:05;7.50;55.30
21807;DHT22;11065;50.786;7.840;2023-02-13T07:19:33;7.40;55.30
21807;DHT22;11065;50.786;7.840;2023-02-13T07:22:01;7.40;55.40
21807;DHT22;11065;50.786;7.840;2023-02-13T07:24:29;7.40;55.50
21807;DHT22;11065;50.786;7.840;2023-02-13T07:26:59;7.40;55.50
21807;DHT22;11065;50.786;7.840;2023-02-13T07:29:27;7.40;55.70
21807;DHT22;11065;50.786;7.840;2023-02-13T07:31:56;7.30;55.60
21807;DHT22;11065;50.786;7.840;2023-02-13T07:34:24;7.30;55.60
21807;DHT22;11065;50.786;7.840;2023-02-13T07:36:52;7.30;55.60
21807;DHT22;11065;50.786;7.840;2023-02-13T07:39:20;7.30;55.60
21807;DHT22;11065;50.786;7.840;2023-02-13T07:41:49;7.20;55.60
21807;DHT22;11065;50.786;7.840;2023-02-13T07:44:17;7.20;55.70
21807;DHT22;11065;50.786;7.840;2023-02-13T07:46:45;7.20;55.80
21807;DHT22;11065;50.786;7.840;2023-02-13T07:49:14;7.20;55.80
21807;DHT22;11065;50.786;7.840;2023-02-13T07:51:42;7.20;55.80
21807;DHT22;11065;50.786;7.840;2023-02-13T07:54:10;7.20;55.90
21807;DHT22;11065;50.786;7.840;2023-02-13T07:56:38;7.20;55.90
21807;DHT22;11065;50.786;7.840;2023-02-13T07:59:06;7.20;56.00
21807;DHT22;11065;50.786;7.840;2023-02-13T08:01:34;7.20;56.00
21807;DHT22;11065;50.786;7.840;2023-02-13T08:04:03;7.20;56.10
21807;DHT22;11065;50.786;7.840;2023-02-13T08:06:32;7.20;56.20
21807;DHT22;11065;50.786;7.840;2023-02-13T08:09:00;7.20;56.20
21807;DHT22;11065;50.786;7.840;2023-02-13T08:11:46;7.20;56.30
21807;DHT22;11065;50.786;7.840;2023-02-13T08:14:24;7.20;56.30
21807;DHT22;11065;50.786;7.840;2023-02-13T08:16:53;7.20;56.40
21807;DHT22;11065;50.786;7.840;2023-02-13T08:19:22;7.20;56.50
21807;DHT22;11065;50.786;7.840;2023-02-13T08:21:51;7.20;56.60
21807;DHT22;11065;50.786;7.840;2023-02-13T08:24:20;7.20;56.70
21807;DHT22;11065;50.786;7.840;2023-02-13T08:26:48;7.30;56.80
21807;DHT22;11065;50.786;7.840;2023-02-13T08:29:16;7.30;56.90
21807;DHT22;11065;50.786;7.840;2023-02-13T08:31:44;7.30;57.00
21807;DHT22;11065;50.786;7.840;2023-02-13T08:34:12;7.30;57.10
21807;DHT22;11065;50.786;7.840;2023-02-13T08:36:40;7.40;57.20
21807;DHT22;11065;50.786;7.840;2023-02-13T08:39:09;7.40;57.30
21807;DHT22;11065;50.786;7.840;2023-02-13T08:41:37;7.50;57.40
21807;DHT22;11065;50.786;7.840;2023-02-13T08:44:06;7.50;57.50
21807;DHT22;11065;50.786;7.840;2023-02-13T08:46:33;7.50;57.50
21807;DHT22;11065;50.786;7.840;2023-02-13T08:49:02;7.60;57.60
21807;DHT22;11065;50.786;7.840;2023-02-13T08:51:30;7.60;57.60
21807;DHT22;11065;50.786;7.840;2023-02-13T08:53:58;7.70;57.80
21807;DHT22;11065;50.786;7.840;2023-02-13T08:56:27;7.70;57.80
21807;DHT22;11065;50.786;7.840;2023-02-13T08:58:55;7.80;57.90
21807;DHT22;11065;50.786;7.840;2023-02-13T09:01:24;7.80;57.90
21807;DHT22;11065;50.786;7.840;2023-02-13T09:03:52;7.90;58.00
21807;DHT22;11065;50.786;7.840;2023-02-13T09:06:20;8.00;58.10
21807;DHT22;11065;50.786;7.840;2023-02-13T09:08:48;8.10;58.20
21807;DHT22;11065;50.786;7.840;2023-02-13T09:11:16;8.10;58.30
21807;DHT22;11065;50.786;7.840;2023-02-13T09:13:46;8.30;58.50
21807;DHT22;11065;50.786;7.840;2023-02-13T09:16:15;8.40;58.80
21807;DHT22;11065;50.786;7.840;2023-02-13T09:18:45;8.50;59.80
21807;DHT22;11065;50.786;7.840;2023-02-13T09:21:14;9.00;62.50
21807;DHT22;11065;50.786;7.840;2023-02-13T09:23:43;9.60;66.10
21807;DHT22;11065;50.786;7.840;2023-02-13T09:26:13;10.60;70.10
21807;DHT22;11065;50.786;7.840;2023-02-13T09:28:42;11.90;72.80
21807;DHT22;11065;50.786;7.840;2023-02-13T09:31:14;13.20;73.70
21807;DHT22;11065;50.786;7.840;2023-02-13T09:33:43;14.70;71.70
21807;DHT22;11065;50.786;7.840;2023-02-13T09:36:13;16.20;70.70
21807;DHT22;11065;50.786;7.840;2023-02-13T09:38:41;17.70;67.60
21807;DHT22;11065;50.786;7.840;2023-02-13T09:41:13;19.10;65.40
21807;DHT22;11065;50.786;7.840;2023-02-13T09:43:45;20.50;61.20
21807;DHT22;11065;50.786;7.840;2023-02-13T09:46:21;21.70;58.90
21807;DHT22;11065;50.786;7.840;2023-02-13T09:48:53;22.90;57.30
21807;DHT22;11065;50.786;7.840;2023-02-13T09:51:23;23.90;56.10
21807;DHT22;11065;50.786;7.840;2023-02-13T09:53:55;24.80;55.20
21807;DHT22;11065;50.786;7.840;2023-02-13T09:56:43;25.70;53.90
21807;DHT22;11065;50.786;7.840;2023-02-13T09:59:28;26.60;51.10
21807;DHT22;11065;50.786;7.840;2023-02-13T10:02:16;27.30;50.30
21807;DHT22;11065;50.786;7.840;2023-02-13T10:04:55;27.90;49.00
21807;DHT22;11065;50.786;7.840;2023-02-13T10:07:33;28.60;49.50
21807;DHT22;11065;50.786;7.840;2023-02-13T10:10:12;28.90;48.00
21807;DHT22;11065;50.786;7.840;2023-02-13T10:12:55;29.40;47.20
21807;DHT22;11065;50.786;7.840;2023-02-13T10:15:32;29.80;47.10
21807;DHT22;11065;50.786;7.840;2023-02-13T10:18:08;30.20;47.50
21807;DHT22;11065;50.786;7.840;2023-02-13T10:20:42;30.60;47.30
21807;DHT22;11065;50.786;7.840;2023-02-13T10:23:18;30.90;46.00
21807;DHT22;11065;50.786;7.840;2023-02-13T10:25:51;31.30;45.20
21807;DHT22;11065;50.786;7.840;2023-02-13T10:28:29;31.60;44.80
21807;DHT22;11065;50.786;7.840;2023-02-13T10:31:02;31.80;42.80
21807;DHT22;11065;50.786;7.840;2023-02-13T10:33:36;32.20;43.00
21807;DHT22;11065;50.786;7.840;2023-02-13T10:36:14;32.40;42.00
21807;DHT22;11065;50.786;7.840;2023-02-13T10:38:45;32.80;40.20
21807;DHT22;11065;50.786;7.840;2023-02-13T10:41:24;32.80;41.00
21807;DHT22;11065;50.786;7.840;2023-02-13T10:44:07;33.00;39.20
21807;DHT22;11065;50.786;7.840;2023-02-13T10:46:47;33.20;38.60
21807;DHT22;11065;50.786;7.840;2023-02-13T10:49:41;33.30;38.30
21807;DHT22;11065;50.786;7.840;2023-02-13T10:52:19;33.50;37.50
21807;DHT22;11065;50.786;7.840;2023-02-13T10:55:01;33.50;37.50
21807;DHT22;11065;50.786;7.840;2023-02-13T10:57:43;33.60;37.30
21807;DHT22;11065;50.786;7.840;2023-02-13T11:00:24;33.70;36.80
21807;DHT22;11065;50.786;7.840;2023-02-13T11:02:57;33.80;36.70
21807;DHT22;11065;50.786;7.840;2023-02-13T11:05:30;33.90;37.50
21807;DHT22;11065;50.786;7.840;2023-02-13T11:07:59;34.10;36.10
21807;DHT22;11065;50.786;7.840;2023-02-13T11:10:28;34.20;36.40
21807;DHT22;11065;50.786;7.840;2023-02-13T11:12:56;34.30;35.50
21807;DHT22;11065;50.786;7.840;2023-02-13T11:15:28;34.30;35.50
21807;DHT22;11065;50.786;7.840;2023-02-13T11:17:58;34.40;35.00
21807;DHT22;11065;50.786;7.840;2023-02-13T11:20:32;34.40;34.80
21807;DHT22;11065;50.786;7.840;2023-02-13T11:23:26;34.50;33.40
21807;DHT22;11065;50.786;7.840;2023-02-13T11:25:56;34.50;33.00
21807;DHT22;11065;50.786;7.840;2023-02-13T11:28:27;34.50;33.80
21807;DHT22;11065;50.786;7.840;2023-02-13T11:31:09;34.50;33.50
21807;DHT22;11065;50.786;7.840;2023-02-13T11:33:38;34.50;32.30
21807;DHT22;11065;50.786;7.840;2023-02-13T11:36:09;34.50;33.50
21807;DHT22;11065;50.786;7.840;2023-02-13T11:38:39;34.50;32.80
21807;DHT22;11065;50.786;7.840;2023-02-13T11:41:09;34.60;33.10
21807;DHT22;11065;50.786;7.840;2023-02-13T11:43:45;34.60;32.30
21807;DHT22;11065;50.786;7.840;2023-02-13T11:46:18;34.60;31.60
21807;DHT22;11065;50.786;7.840;2023-02-13T11:48:57;34.60;32.00
21807;DHT22;11065;50.786;7.840;2023-02-13T11:51:36;34.60;31.10
21807;DHT22;11065;50.786;7.840;2023-02-13T11:54:05;34.60;31.10
21807;DHT22;11065;50.786;7.840;2023-02-13T11:56:48;34.70;31.80
21807;DHT22;11065;50.786;7.840;2023-02-13T11:59:32;34.60;30.60
21807;DHT22;11065;50.786;7.840;2023-02-13T12:02:14;34.50;31.10
21807;DHT22;11065;50.786;7.840;2023-02-13T12:04:43;34.50;30.40
21807;DHT22;11065;50.786;7.840;2023-02-13T12:07:16;34.50;31.00
21807;DHT22;11065;50.786;7.840;2023-02-13T12:09:47;34.40;30.40
21807;DHT22;11065;50.786;7.840;2023-02-13T12:12:20;34.30;30.20
21807;DHT22;11065;50.786;7.840;2023-02-13T12:14:48;34.20;30.00
21807;DHT22;11065;50.786;7.840;2023-02-13T12:17:20;34.10;30.10
21807;DHT22;11065;50.786;7.840;2023-02-13T12:19:58;34.00;30.00
21807;DHT22;11065;50.786;7.840;2023-02-13T12:22:38;33.80;30.00
21807;DHT22;11065;50.786;7.840;2023-02-13T12:28:21;33.50;28.50
21807;DHT22;11065;50.786;7.840;2023-02-13T12:31:13;33.20;29.30
21807;DHT22;11065;50.786;7.840;2023-02-13T12:36:45;32.80;29.20
21807;DHT22;11065;50.786;7.840;2023-02-13T12:39:24;32.70;29.50
21807;DHT22;11065;50.786;7.840;2023-02-13T12:42:15;32.60;29.30
21807;DHT22;11065;50.786;7.840;2023-02-13T12:44:56;32.60;29.20
21807;DHT22;11065;50.786;7.840;2023-02-13T12:47:30;32.50;29.00
21807;DHT22;11065;50.786;7.840;2023-02-13T12:50:26;32.50;29.10
21807;DHT22;11065;50.786;7.840;2023-02-13T12:53:08;32.40;28.90
21807;DHT22;11065;50.786;7.840;2023-02-13T12:55:58;32.30;28.90
21807;DHT22;11065;50.786;7.840;2023-02-13T12:58:56;32.30;28.70
21807;DHT22;11065;50.786;7.840;2023-02-13T13:01:50;32.20;28.80
21807;DHT22;11065;50.786;7.840;2023-02-13T13:04:32;32.20;28.70
21807;DHT22;11065;50.786;7.840;2023-02-13T13:07:24;32.20;28.90
21807;DHT22;11065;50.786;7.840;2023-02-13T13:10:18;32.20;28.80
21807;DHT22;11065;50.786;7.840;2023-02-13T13:12:55;32.20;28.60
21807;DHT22;11065;50.786;7.840;2023-02-13T13:15:33;32.10;28.50
21807;DHT22;11065;50.786;7.840;2023-02-13T13:18:24;32.10;28.50
21807;DHT22;11065;50.786;7.840;2023-02-13T13:21:01;32.00;28.30
21807;DHT22;11065;50.786;7.840;2023-02-13T13:23:37;32.00;28.30
21807;DHT22;11065;50.786;7.840;2023-02-13T13:26:16;31.90;28.40
21807;DHT22;11065;50.786;7.840;2023-02-13T13:28:49;31.90;28.10
21807;DHT22;11065;50.786;7.840;2023-02-13T13:31:20;31.80;28.20
21807;DHT22;11065;50.786;7.840;2023-02-13T13:33:50;31.70;27.90
21807;DHT22;11065;50.786;7.840;2023-02-13T13:36:29;31.60;28.10
21807;DHT22;11065;50.786;7.840;2023-02-13T13:39:05;31.50;28.00
21807;DHT22;11065;50.786;7.840;2023-02-13T13:41:40;31.50;28.10
21807;DHT22;11065;50.786;7.840;2023-02-13T13:47:20;31.40;27.70
21807;DHT22;11065;50.786;7.840;2023-02-13T13:49:52;31.20;27.80
21807;DHT22;11065;50.786;7.840;2023-02-13T13:52:23;31.20;28.00
21807;DHT22;11065;50.786;7.840;2023-02-13T13:54:52;31.20;27.30
21807;DHT22;11065;50.786;7.840;2023-02-13T13:57:21;31.00;27.60
21807;DHT22;11065;50.786;7.840;2023-02-13T14:00:28;30.90;27.40
21807;DHT22;11065;50.786;7.840;2023-02-13T14:03:20;30.80;27.20
21807;DHT22;11065;50.786;7.840;2023-02-13T14:06:01;30.70;27.30
21807;DHT22;11065;50.786;7.840;2023-02-13T14:09:04;30.50;27.10
21807;DHT22;11065;50.786;7.840;2023-02-13T14:11:39;30.30;26.60
21807;DHT22;11065;50.786;7.840;2023-02-13T14:17:54;30.10;27.00
21807;DHT22;11065;50.786;7.840;2023-02-13T14:20:32;29.90;27.20
21807;DHT22;11065;50.786;7.840;2023-02-13T14:26:20;29.60;27.30
21807;DHT22;11065;50.786;7.840;2023-02-13T14:28:58;29.50;27.20
21807;DHT22;11065;50.786;7.840;2023-02-13T14:31:30;29.40;27.10
21807;DHT22;11065;50.786;7.840;2023-02-13T14:34:04;29.30;27.30
21807;DHT22;11065;50.786;7.840;2023-02-13T14:36:34;29.10;27.20
21807;DHT22;11065;50.786;7.840;2023-02-13T14:39:05;29.00;27.20
21807;DHT22;11065;50.786;7.840;2023-02-13T14:41:41;28.90;27.10
21807;DHT22;11065;50.786;7.840;2023-02-13T14:44:15;28.90;27.20
21807;DHT22;11065;50.786;7.840;2023-02-13T14:46:47;28.80;27.30
21807;DHT22;11065;50.786;7.840;2023-02-13T14:49:19;28.70;27.50
21807;DHT22;11065;50.786;7.840;2023-02-13T14:51:50;28.70;27.50
21807;DHT22;11065;50.786;7.840;2023-02-13T14:54:24;28.60;27.50
21807;DHT22;11065;50.786;7.840;2023-02-13T14:56:59;28.60;27.50
21807;DHT22;11065;50.786;7.840;2023-02-13T14:59:33;28.60;27.50
21807;DHT22;11065;50.786;7.840;2023-02-13T15:02:16;28.40;27.50
21807;DHT22;11065;50.786;7.840;2023-02-13T15:04:48;28.40;27.20
21807;DHT22;11065;50.786;7.840;2023-02-13T15:07:20;28.30;27.40
21807;DHT22;11065;50.786;7.840;2023-02-13T15:09:51;28.20;27.30
21807;DHT22;11065;50.786;7.840;2023-02-13T15:12:26;28.10;27.40
21807;DHT22;11065;50.786;7.840;2023-02-13T15:14:55;27.90;27.20
21807;DHT22;11065;50.786;7.840;2023-02-13T15:17:25;27.80;27.30
21807;DHT22;11065;50.786;7.840;2023-02-13T15:20:03;27.60;27.30
21807;DHT22;11065;50.786;7.840;2023-02-13T15:22:33;27.40;27.20
21807;DHT22;11065;50.786;7.840;2023-02-13T15:25:02;27.30;27.30
21807;DHT22;11065;50.786;7.840;2023-02-13T15:27:32;27.10;27.20
21807;DHT22;11065;50.786;7.840;2023-02-13T15:30:13;26.90;27.20
21807;DHT22;11065;50.786;7.840;2023-02-13T15:32:44;26.70;27.20
21807;DHT22;11065;50.786;7.840;2023-02-13T15:35:26;26.40;27.30
21807;DHT22;11065;50.786;7.840;2023-02-13T15:37:54;26.20;27.50
21807;DHT22;11065;50.786;7.840;2023-02-13T15:40:24;26.10;27.50
21807;DHT22;11065;50.786;7.840;2023-02-13T15:42:53;25.90;27.60
21807;DHT22;11065;50.786;7.840;2023-02-13T15:45:24;25.70;27.60
21807;DHT22;11065;50.786;7.840;2023-02-13T15:47:53;25.60;27.70
21807;DHT22;11065;50.786;7.840;2023-02-13T15:50:28;25.40;27.70
21807;DHT22;11065;50.786;7.840;2023-02-13T15:52:57;25.20;27.70
21807;DHT22;11065;50.786;7.840;2023-02-13T15:55:29;25.00;27.60
21807;DHT22;11065;50.786;7.840;2023-02-13T15:57:59;24.60;27.60
21807;DHT22;11065;50.786;7.840;2023-02-13T16:00:30;24.20;27.70
21807;DHT22;11065;50.786;7.840;2023-02-13T16:03:02;23.80;27.80
21807;DHT22;11065;50.786;7.840;2023-02-13T16:05:37;23.50;28.00
21807;DHT22;11065;50.786;7.840;2023-02-13T16:08:29;23.00;28.20
21807;DHT22;11065;50.786;7.840;2023-02-13T16:11:21;22.60;28.60
21807;DHT22;11065;50.786;7.840;2023-02-13T16:14:11;22.10;28.70
21807;DHT22;11065;50.786;7.840;2023-02-13T16:16:47;21.70;28.90
21807;DHT22;11065;50.786;7.840;2023-02-13T16:19:30;21.30;28.80
21807;DHT22;11065;50.786;7.840;2023-02-13T16:22:04;21.00;29.30
21807;DHT22;11065;50.786;7.840;2023-02-13T16:24:32;20.70;29.20
21807;DHT22;11065;50.786;7.840;2023-02-13T16:27:00;20.30;29.30
21807;DHT22;11065;50.786;7.840;2023-02-13T16:29:29;20.10;29.50
21807;DHT22;11065;50.786;7.840;2023-02-13T16:32:08;19.70;29.60
21807;DHT22;11065;50.786;7.840;2023-02-13T16:34:40;19.50;30.00